createdAt,value
2023-05-10T00:00:14.175Z,50.22
2023-05-10T00:02:41.662Z,65.45
2023-05-10T00:05:08.692Z,50.88
2023-05-10T00:07:35.225Z,49.40
2023-05-10T00:10:01.743Z,48.28
2023-05-10T00:12:28.262Z,58.67
2023-05-10T00:14:54.795Z,58.15
2023-05-10T00:17:21.450Z,55.83
2023-05-10T00:19:47.996Z,66.55
2023-05-10T00:22:14.495Z,69.15
2023-05-10T00:24:41.026Z,73.70
2023-05-10T00:27:07.505Z,72.00
2023-05-10T00:29:34.854Z,67.35
2023-05-10T00:32:01.507Z,74.40
2023-05-10T00:34:28.210Z,71.35
2023-05-10T00:36:54.857Z,75.43
2023-05-10T00:39:21.481Z,72.70
2023-05-10T00:41:48.087Z,67.97
2023-05-10T00:44:14.717Z,73.07
2023-05-10T00:46:41.583Z,77.00
2023-05-10T00:49:08.262Z,73.88
2023-05-10T00:51:34.937Z,80.07
2023-05-10T00:54:01.470Z,62.47
2023-05-10T00:56:29.466Z,73.80
2023-05-10T00:58:56.758Z,66.22
2023-05-10T01:01:23.419Z,71.07
2023-05-10T01:03:50.007Z,68.90
2023-05-10T01:06:16.538Z,64.90
2023-05-10T01:08:43.215Z,66.45
2023-05-10T01:11:09.927Z,71.32
2023-05-10T01:13:38.447Z,75.60
2023-05-10T01:16:05.876Z,66.55
2023-05-10T01:18:34.477Z,64.75
2023-05-10T01:21:14.546Z,73.78
2023-05-10T01:24:10.660Z,75.97
2023-05-10T01:27:11.428Z,68.82
2023-05-10T01:30:14.147Z,68.95
2023-05-10T01:32:52.139Z,78.25
2023-05-10T01:36:04.967Z,82.13
2023-05-10T01:38:57.688Z,69.47
2023-05-10T01:41:56.322Z,64.50
2023-05-10T01:44:30.977Z,59.28
2023-05-10T01:47:21.039Z,60.65
2023-05-10T01:49:52.333Z,68.78
2023-05-10T01:52:27.335Z,60.85
2023-05-10T01:55:02.153Z,64.03
2023-05-10T01:59:56.023Z,57.65
2023-05-10T02:02:23.901Z,56.75
2023-05-10T02:04:51.678Z,64.18
2023-05-10T02:07:18.744Z,59.67
2023-05-10T02:09:48.993Z,58.35
2023-05-10T02:12:16.619Z,68.57
2023-05-10T02:14:44.095Z,66.80
2023-05-10T02:17:10.982Z,70.65
2023-05-10T02:19:39.580Z,68.00
2023-05-10T02:22:06.298Z,52.45
2023-05-10T02:24:33.742Z,67.90
2023-05-10T02:27:00.901Z,64.50
2023-05-10T02:29:28.282Z,62.03
2023-05-10T02:31:56.205Z,71.05
2023-05-10T02:34:24.324Z,75.20
2023-05-10T02:36:52.262Z,63.38
2023-05-10T02:39:20.130Z,67.78
2023-05-10T02:41:47.904Z,58.92
2023-05-10T02:44:16.640Z,59.70
2023-05-10T02:46:43.144Z,62.33
2023-05-10T02:49:09.688Z,65.72
2023-05-10T02:51:38.758Z,72.63
2023-05-10T02:54:11.674Z,65.47
2023-05-10T02:56:44.042Z,67.28
2023-05-10T02:59:10.555Z,67.78
2023-05-10T03:01:37.085Z,60.90
2023-05-10T03:04:03.741Z,61.10
2023-05-10T03:06:30.378Z,55.10
2023-05-10T03:08:57.475Z,61.42
2023-05-10T03:11:46.383Z,52.10
2023-05-10T03:14:27.994Z,47.67
2023-05-10T03:16:59.972Z,61.30
2023-05-10T03:19:34.189Z,52.75
2023-05-10T03:22:05.952Z,70.40
2023-05-10T03:24:34.167Z,73.72
2023-05-10T03:27:03.773Z,66.13
2023-05-10T03:29:31.773Z,65.55
2023-05-10T03:32:01.562Z,63.92
2023-05-10T03:34:30.981Z,73.97
2023-05-10T03:36:57.471Z,74.90
2023-05-10T03:39:23.988Z,65.07
2023-05-10T03:41:50.457Z,61.22
2023-05-10T03:44:17.397Z,60.63
2023-05-10T03:46:44.016Z,67.28
2023-05-10T03:49:10.571Z,59.35
2023-05-10T03:51:37.261Z,52.00
2023-05-10T03:54:03.930Z,66.10
2023-05-10T03:56:31.048Z,64.07
2023-05-10T03:58:57.566Z,65.22
2023-05-10T04:01:24.062Z,64.53
2023-05-10T04:03:50.807Z,71.15
2023-05-10T04:06:17.576Z,67.25
2023-05-10T04:08:44.111Z,73.40
2023-05-10T04:11:13.229Z,63.53
2023-05-10T04:13:39.744Z,64.65
2023-05-10T04:16:06.539Z,67.68
2023-05-10T04:18:33.113Z,74.55
2023-05-10T04:20:59.630Z,59.58
2023-05-10T04:23:26.160Z,42.58
2023-05-10T04:25:52.736Z,31.65
2023-05-10T04:28:19.317Z,30.73
2023-05-10T04:30:46.696Z,39.40
2023-05-10T04:33:13.251Z,32.20
2023-05-10T04:35:41.030Z,34.35
2023-05-10T04:38:07.821Z,33.20
2023-05-10T04:40:35.220Z,33.50
2023-05-10T04:43:01.755Z,31.10
2023-05-10T04:45:28.256Z,29.40
2023-05-10T04:47:54.854Z,30.73
2023-05-10T04:50:21.403Z,28.23
2023-05-10T04:52:47.916Z,34.78
2023-05-10T04:55:14.702Z,36.25
2023-05-10T04:57:41.281Z,44.30
2023-05-10T05:00:08.446Z,47.60
2023-05-10T05:02:35.161Z,49.72
2023-05-10T05:05:01.892Z,45.92
2023-05-10T05:07:28.447Z,46.75
2023-05-10T05:09:54.973Z,48.53
2023-05-10T05:12:21.508Z,41.40
2023-05-10T05:14:48.004Z,47.10
2023-05-10T05:17:14.541Z,41.55
2023-05-10T05:19:41.073Z,40.72
2023-05-10T05:22:08.812Z,47.22
2023-05-10T05:24:39.148Z,41.70
2023-05-10T05:27:06.889Z,41.95
2023-05-10T05:29:33.426Z,43.10
2023-05-10T05:32:00.278Z,39.22
2023-05-10T05:34:26.993Z,47.35
2023-05-10T05:36:53.514Z,41.25
2023-05-10T05:39:20.021Z,37.40
2023-05-10T05:41:47.623Z,39.22
2023-05-10T05:44:14.132Z,38.10
2023-05-10T05:46:40.731Z,34.10
2023-05-10T05:49:07.492Z,38.00
2023-05-10T05:51:34.034Z,43.55
2023-05-10T05:54:00.585Z,33.42
2023-05-10T05:56:27.152Z,28.15
2023-05-10T05:58:53.890Z,20.48
2023-05-10T06:01:20.583Z,18.33
2023-05-10T06:03:47.171Z,19.92
2023-05-10T06:06:14.373Z,18.83
2023-05-10T06:08:40.896Z,15.50
2023-05-10T06:11:07.382Z,16.02
2023-05-10T06:13:36.159Z,14.13
2023-05-10T06:16:03.846Z,12.25
2023-05-10T06:18:30.392Z,16.73
2023-05-10T06:20:57.023Z,10.73
2023-05-10T06:23:23.821Z,15.70
2023-05-10T06:25:50.586Z,15.38
2023-05-10T06:28:17.178Z,15.88
2023-05-10T06:30:43.727Z,14.70
2023-05-10T06:33:10.353Z,18.27
2023-05-10T06:35:37.830Z,16.25
2023-05-10T06:38:04.401Z,13.43
2023-05-10T06:40:30.945Z,11.65
2023-05-10T06:42:57.484Z,10.93
2023-05-10T06:45:24.141Z,12.23
2023-05-10T06:47:50.704Z,11.07
2023-05-10T06:50:17.294Z,9.35
2023-05-10T06:52:44.183Z,10.20
2023-05-10T06:55:10.990Z,15.07
2023-05-10T06:57:37.632Z,10.40
2023-05-10T07:00:05.738Z,9.50
2023-05-10T07:02:32.375Z,8.57
2023-05-10T07:05:01.679Z,9.73
2023-05-10T07:07:29.855Z,9.82
2023-05-10T07:09:57.534Z,10.70
2023-05-10T07:12:24.801Z,11.63
2023-05-10T07:14:51.360Z,12.07
2023-05-10T07:17:17.924Z,12.38
2023-05-10T07:19:44.695Z,12.95
2023-05-10T07:22:11.266Z,9.32
2023-05-10T07:24:37.813Z,10.38
2023-05-10T07:27:05.216Z,7.75
2023-05-10T07:29:31.746Z,7.88
2023-05-10T07:31:59.039Z,14.40
2023-05-10T07:34:26.263Z,11.43
2023-05-10T07:36:53.194Z,9.98
2023-05-10T07:39:27.278Z,15.57
2023-05-10T07:41:55.501Z,11.75
2023-05-10T07:44:22.049Z,9.48
2023-05-10T07:46:49.096Z,12.07
2023-05-10T07:49:15.777Z,11.60
2023-05-10T07:51:43.323Z,14.80
2023-05-10T07:54:09.903Z,13.10
2023-05-10T07:56:36.448Z,19.95
2023-05-10T07:59:08.443Z,12.95
2023-05-10T08:01:36.243Z,10.40
2023-05-10T08:04:03.259Z,8.60
2023-05-10T08:06:30.880Z,10.13
2023-05-10T08:08:57.636Z,9.63
2023-05-10T08:11:24.325Z,8.25
2023-05-10T08:13:51.834Z,8.88
2023-05-10T08:16:18.466Z,9.85
2023-05-10T08:18:46.431Z,7.00
2023-05-10T08:21:13.433Z,5.38
2023-05-10T08:23:39.918Z,8.55
2023-05-10T08:26:06.699Z,12.07
2023-05-10T08:28:33.295Z,11.70
2023-05-10T08:31:00.053Z,11.32
2023-05-10T08:33:26.934Z,11.50
2023-05-10T08:35:53.481Z,13.13
2023-05-10T08:38:19.975Z,10.82
2023-05-10T08:40:46.715Z,11.55
2023-05-10T08:43:16.172Z,9.70
2023-05-10T08:45:46.292Z,14.15
2023-05-10T08:48:12.906Z,14.65
2023-05-10T08:50:42.990Z,12.25
2023-05-10T08:53:14.128Z,14.90
2023-05-10T08:55:43.041Z,14.80
2023-05-10T08:58:10.371Z,14.75
2023-05-10T09:00:38.222Z,14.70
2023-05-10T09:03:05.861Z,11.77
2023-05-10T09:05:32.888Z,12.20
2023-05-10T09:08:02.305Z,12.77
2023-05-10T09:10:29.207Z,13.95
2023-05-10T09:12:59.382Z,14.93
2023-05-10T09:15:26.237Z,18.15
2023-05-10T09:17:52.859Z,11.57
2023-05-10T09:20:21.372Z,12.85
2023-05-10T09:22:48.354Z,14.13
2023-05-10T09:25:16.613Z,12.13
2023-05-10T09:27:48.183Z,10.55
2023-05-10T09:30:19.102Z,12.50
2023-05-10T09:37:25.432Z,13.07
2023-05-10T09:39:55.584Z,10.60
2023-05-10T09:42:22.125Z,10.63
2023-05-10T09:44:48.955Z,11.27
2023-05-10T09:47:19.970Z,14.48
2023-05-10T09:49:54.070Z,14.27
2023-05-10T09:52:20.833Z,13.57
2023-05-10T09:54:54.298Z,15.98
2023-05-10T09:57:25.943Z,12.65
2023-05-10T09:59:54.530Z,14.73
2023-05-10T10:02:21.035Z,14.15
2023-05-10T10:04:50.280Z,14.07
2023-05-10T10:07:23.702Z,12.40
2023-05-10T10:09:50.789Z,10.25
2023-05-10T10:12:17.542Z,13.95
2023-05-10T10:14:44.275Z,11.82
2023-05-10T10:17:10.769Z,9.60
2023-05-10T10:19:38.043Z,8.65
2023-05-10T10:22:05.294Z,10.63
2023-05-10T10:24:32.170Z,11.35
2023-05-10T10:27:23.722Z,13.68
2023-05-10T10:29:53.331Z,12.18
2023-05-10T10:32:31.392Z,7.88
2023-05-10T10:34:58.043Z,10.73
2023-05-10T10:37:25.142Z,9.65
2023-05-10T10:39:51.780Z,11.18
2023-05-10T10:42:44.886Z,12.20
2023-05-10T10:45:14.704Z,8.05
2023-05-10T10:47:41.562Z,11.77
2023-05-10T10:50:09.161Z,10.20
2023-05-10T10:52:37.375Z,7.47
2023-05-10T10:55:14.188Z,8.80
2023-05-10T10:58:02.080Z,9.32
2023-05-10T11:00:29.172Z,11.45
2023-05-10T11:03:10.146Z,8.25
2023-05-10T11:05:47.266Z,10.18
2023-05-10T11:08:37.449Z,7.25
2023-05-10T11:11:09.133Z,9.90
2023-05-10T11:13:42.827Z,9.30
2023-05-10T11:16:15.792Z,12.40
2023-05-10T11:18:54.067Z,10.90
2023-05-10T11:21:20.755Z,10.35
2023-05-10T11:23:52.427Z,11.00
2023-05-10T11:26:19.685Z,11.02
2023-05-10T11:28:47.723Z,10.60
2023-05-10T11:31:18.257Z,23.73
2023-05-10T11:33:49.519Z,14.02
2023-05-10T11:36:17.836Z,21.95
2023-05-10T11:38:44.845Z,10.55
2023-05-10T11:41:12.582Z,12.57
2023-05-10T11:43:42.800Z,8.70
2023-05-10T11:46:12.276Z,10.77
2023-05-10T11:48:42.747Z,8.57
2023-05-10T11:51:09.844Z,9.13
2023-05-10T11:53:36.598Z,14.95
2023-05-10T11:56:10.303Z,10.52
2023-05-10T11:58:38.692Z,10.32
2023-05-10T12:01:06.854Z,13.02
2023-05-10T12:06:02.036Z,9.95
2023-05-10T12:08:30.085Z,10.88
2023-05-10T12:11:08.886Z,14.05
2023-05-10T12:13:41.311Z,10.57
2023-05-10T12:16:34.381Z,12.05
2023-05-10T12:19:01.940Z,8.18
2023-05-10T12:21:30.151Z,8.50
2023-05-10T12:24:01.233Z,6.70
2023-05-10T12:26:29.176Z,13.85
2023-05-10T12:28:55.995Z,9.82
2023-05-10T12:31:22.556Z,12.57
2023-05-10T12:33:50.304Z,12.93
2023-05-10T12:36:17.657Z,7.85
2023-05-10T12:38:48.543Z,7.88
2023-05-10T12:41:16.984Z,6.93
2023-05-10T12:43:43.794Z,9.25
2023-05-10T12:46:12.790Z,8.30
2023-05-10T12:48:41.168Z,9.60
2023-05-10T12:51:12.890Z,11.57
2023-05-10T12:53:45.077Z,8.35
2023-05-10T12:56:12.227Z,9.52
2023-05-10T12:58:39.460Z,10.27
2023-05-10T13:01:06.641Z,11.75
2023-05-10T13:03:33.387Z,12.43
2023-05-10T13:05:59.950Z,6.60
2023-05-10T13:08:26.548Z,11.90
2023-05-10T13:10:53.096Z,10.32
2023-05-10T13:13:19.629Z,10.63
2023-05-10T13:15:46.168Z,9.55
2023-05-10T13:18:12.794Z,8.70
2023-05-10T13:20:39.486Z,8.70
2023-05-10T13:23:06.050Z,7.45
2023-05-10T13:25:32.641Z,7.97
2023-05-10T13:27:59.124Z,6.68
2023-05-10T13:30:25.645Z,7.80
2023-05-10T13:32:52.252Z,13.20
2023-05-10T13:35:18.865Z,9.63
2023-05-10T13:37:45.491Z,11.45
2023-05-10T13:40:12.400Z,10.18
2023-05-10T13:42:39.049Z,9.15
2023-05-10T13:45:06.235Z,7.57
2023-05-10T13:47:33.095Z,11.60
2023-05-10T13:49:59.656Z,19.70
2023-05-10T13:52:27.304Z,9.48
2023-05-10T13:54:55.935Z,13.02
2023-05-10T13:57:22.942Z,10.75
2023-05-10T13:59:49.619Z,11.82
2023-05-10T14:02:16.120Z,13.75
2023-05-10T14:04:42.647Z,11.02
2023-05-10T14:07:09.246Z,11.18
2023-05-10T14:09:35.763Z,12.27
2023-05-10T14:12:03.128Z,14.30
2023-05-10T14:14:30.444Z,14.93
2023-05-10T14:16:56.973Z,14.85
2023-05-10T14:19:23.498Z,14.18
2023-05-10T14:21:50.022Z,13.32
2023-05-10T14:24:16.538Z,16.35
2023-05-10T14:26:43.032Z,12.85
2023-05-10T14:29:11.556Z,13.43
2023-05-10T14:31:39.070Z,14.73
2023-05-10T14:34:06.732Z,15.48
2023-05-10T14:36:33.373Z,16.30
2023-05-10T14:38:59.965Z,13.38
2023-05-10T14:41:26.478Z,13.75
2023-05-10T14:43:53.725Z,14.13
2023-05-10T14:46:20.761Z,11.73
2023-05-10T14:48:47.496Z,12.23
2023-05-10T14:51:14.578Z,10.32
2023-05-10T14:53:41.168Z,12.65
2023-05-10T14:56:08.203Z,9.60
2023-05-10T14:58:34.762Z,9.13
2023-05-10T15:01:01.781Z,9.50
2023-05-10T15:03:28.920Z,12.30
2023-05-10T15:05:57.132Z,10.68
2023-05-10T15:08:25.455Z,9.45
2023-05-10T15:10:52.404Z,12.48
2023-05-10T15:13:18.895Z,9.70
2023-05-10T15:15:45.443Z,9.25
2023-05-10T15:18:12.318Z,11.23
2023-05-10T15:20:38.964Z,10.15
2023-05-10T15:23:05.528Z,6.82
2023-05-10T15:25:32.179Z,8.43
2023-05-10T15:27:58.689Z,8.07
2023-05-10T15:30:25.268Z,6.13
2023-05-10T15:32:51.983Z,5.95
2023-05-10T15:35:18.744Z,10.05
2023-05-10T15:37:45.671Z,8.57
2023-05-10T15:40:12.651Z,8.30
2023-05-10T15:42:39.358Z,6.95
2023-05-10T15:45:07.048Z,7.40
2023-05-10T15:47:34.191Z,6.18
2023-05-10T15:50:01.127Z,7.30
2023-05-10T15:52:28.221Z,7.05
2023-05-10T15:54:54.837Z,6.57
2023-05-10T15:57:21.327Z,6.97
2023-05-10T15:59:47.871Z,5.85
2023-05-10T16:02:14.485Z,6.20
2023-05-10T16:04:41.060Z,8.13
2023-05-10T16:07:07.620Z,3.97
2023-05-10T16:09:41.346Z,5.32
2023-05-10T16:12:08.450Z,4.45
2023-05-10T16:14:35.005Z,7.00
2023-05-10T16:17:05.245Z,6.75
2023-05-10T16:19:32.053Z,8.63
2023-05-10T16:21:58.671Z,5.30
2023-05-10T16:24:25.955Z,7.05
2023-05-10T16:26:52.529Z,5.55
2023-05-10T16:29:19.055Z,6.75
2023-05-10T16:31:46.323Z,6.25
2023-05-10T16:34:12.891Z,7.80
2023-05-10T16:36:39.409Z,7.28
2023-05-10T16:39:05.938Z,8.60
2023-05-10T16:41:35.789Z,7.43
2023-05-10T16:44:03.874Z,7.78
2023-05-10T16:46:30.478Z,8.35
2023-05-10T16:48:57.106Z,9.35
2023-05-10T16:51:23.616Z,10.55
2023-05-10T16:53:50.090Z,11.10
2023-05-10T16:56:18.407Z,13.85
2023-05-10T16:58:44.925Z,17.50
2023-05-10T17:01:11.545Z,8.77
2023-05-10T17:03:38.242Z,11.15
2023-05-10T17:06:06.018Z,9.55
2023-05-10T17:08:33.024Z,9.98
2023-05-10T17:11:03.929Z,8.88
2023-05-10T17:13:31.115Z,12.07
2023-05-10T17:15:57.899Z,14.10
2023-05-10T17:18:24.786Z,9.38
2023-05-10T17:20:51.489Z,9.63
2023-05-10T17:23:18.022Z,11.05
2023-05-10T17:25:44.643Z,7.80
2023-05-10T17:28:11.183Z,11.50
2023-05-10T17:30:37.897Z,8.35
2023-05-10T17:33:05.224Z,9.60
2023-05-10T17:35:32.077Z,9.27
2023-05-10T17:37:58.631Z,9.50
2023-05-10T17:40:25.135Z,10.20
2023-05-10T17:42:52.095Z,9.93
2023-05-10T17:45:18.999Z,9.57
2023-05-10T17:47:46.320Z,10.52
2023-05-10T17:50:12.918Z,9.85
2023-05-10T17:52:39.511Z,9.13
2023-05-10T17:55:06.616Z,10.65
2023-05-10T17:57:33.386Z,11.48
2023-05-10T18:00:00.051Z,10.73
2023-05-10T18:02:26.896Z,11.43
2023-05-10T18:04:53.599Z,8.52
2023-05-10T18:07:22.847Z,7.72
2023-05-10T18:09:49.636Z,11.02
2023-05-10T18:12:16.497Z,9.15
2023-05-10T18:14:43.018Z,8.18
2023-05-10T18:17:09.878Z,8.35
2023-05-10T18:19:36.659Z,9.25
2023-05-10T18:22:03.254Z,10.98
2023-05-10T18:24:39.164Z,9.82
2023-05-10T18:27:09.836Z,9.65
2023-05-10T18:29:37.029Z,8.00
2023-05-10T18:32:03.787Z,8.02
2023-05-10T18:34:30.366Z,8.93
2023-05-10T18:36:57.028Z,7.30
2023-05-10T18:39:24.355Z,10.88
2023-05-10T18:41:51.118Z,8.98
2023-05-10T18:44:18.936Z,9.30
2023-05-10T18:46:45.654Z,7.53
2023-05-10T18:49:12.177Z,6.55
2023-05-10T18:51:38.679Z,7.20
2023-05-10T18:54:05.220Z,7.45
2023-05-10T18:56:31.763Z,8.20
2023-05-10T18:58:58.392Z,6.88
2023-05-10T19:01:25.005Z,7.20
2023-05-10T19:03:51.736Z,6.93
2023-05-10T19:06:18.302Z,7.40
2023-05-10T19:08:44.863Z,7.05
2023-05-10T19:11:11.401Z,9.90
2023-05-10T19:13:38.223Z,6.78
2023-05-10T19:16:14.994Z,6.60
2023-05-10T19:18:44.811Z,6.90
2023-05-10T19:21:11.462Z,7.15
2023-05-10T19:23:40.428Z,5.28
2023-05-10T19:26:08.034Z,6.10
2023-05-10T19:28:35.952Z,5.25
2023-05-10T19:31:02.568Z,5.32
2023-05-10T19:33:29.641Z,6.07
2023-05-10T19:35:56.369Z,4.20
2023-05-10T19:38:24.188Z,6.78
2023-05-10T19:40:57.427Z,3.75
2023-05-10T19:43:28.811Z,6.05
2023-05-10T19:45:58.345Z,5.78
2023-05-10T19:48:25.357Z,8.43
2023-05-10T19:50:52.881Z,6.57
2023-05-10T19:53:19.506Z,7.05
2023-05-10T19:55:46.233Z,7.13
2023-05-10T19:58:12.761Z,6.93
2023-05-10T20:00:39.293Z,9.52
2023-05-10T20:03:08.420Z,9.75
2023-05-10T20:05:35.837Z,7.82
2023-05-10T20:08:02.499Z,9.68
2023-05-10T20:10:29.057Z,7.55
2023-05-10T20:12:55.591Z,8.57
2023-05-10T20:15:23.277Z,10.48
2023-05-10T20:17:51.217Z,9.27
2023-05-10T20:20:18.236Z,10.50
2023-05-10T20:22:45.276Z,8.93
2023-05-10T20:25:12.353Z,7.05
2023-05-10T20:27:38.920Z,5.20
2023-05-10T20:30:06.246Z,5.75
2023-05-10T20:32:33.987Z,4.47
2023-05-10T20:35:00.534Z,5.13
2023-05-10T20:37:28.058Z,5.03
2023-05-10T20:39:55.530Z,3.83
2023-05-10T20:42:22.403Z,4.15
2023-05-10T20:44:49.637Z,4.93
2023-05-10T20:47:16.703Z,3.53
2023-05-10T20:49:43.815Z,4.90
2023-05-10T20:52:10.341Z,5.32
2023-05-10T20:54:36.850Z,6.40
2023-05-10T20:57:03.463Z,5.00
2023-05-10T20:59:30.121Z,4.95
2023-05-10T21:01:57.456Z,7.18
2023-05-10T21:04:25.692Z,6.65
2023-05-10T21:09:19.719Z,5.70
2023-05-10T21:11:46.285Z,5.13
2023-05-10T21:14:12.838Z,8.35
2023-05-10T21:16:39.418Z,8.52
2023-05-10T21:19:07.452Z,9.48
2023-05-10T21:21:34.367Z,7.82
2023-05-10T21:24:01.194Z,6.80
2023-05-10T21:26:27.820Z,7.25
2023-05-10T21:28:54.437Z,6.80
2023-05-10T21:31:21.397Z,6.22
2023-05-10T21:33:47.962Z,7.13
2023-05-10T21:36:14.598Z,8.77
2023-05-10T21:38:42.312Z,10.65
2023-05-10T21:41:08.840Z,7.28
2023-05-10T21:43:35.504Z,10.40
2023-05-10T21:46:02.143Z,13.25
2023-05-10T21:48:28.751Z,12.02
2023-05-10T21:50:55.338Z,10.27
2023-05-10T21:53:22.411Z,9.80
2023-05-10T21:55:49.038Z,11.18
2023-05-10T21:58:15.883Z,10.85
2023-05-10T22:00:42.397Z,12.88
2023-05-10T22:03:09.030Z,10.05
2023-05-10T22:05:35.673Z,12.65
2023-05-10T22:08:02.179Z,14.05
2023-05-10T22:10:28.753Z,11.98
2023-05-10T22:12:55.324Z,13.85
2023-05-10T22:15:22.106Z,11.68
2023-05-10T22:17:48.948Z,12.73
2023-05-10T22:20:15.788Z,13.43
2023-05-10T22:22:42.584Z,12.88
2023-05-10T22:25:09.310Z,14.35
2023-05-10T22:27:36.336Z,13.15
2023-05-10T22:30:03.926Z,12.32
2023-05-10T22:32:31.615Z,12.40
2023-05-10T22:34:58.318Z,13.32
2023-05-10T22:37:24.856Z,12.88
2023-05-10T22:39:51.448Z,15.15
2023-05-10T22:42:17.995Z,18.02
2023-05-10T22:44:44.588Z,17.65
2023-05-10T22:47:11.210Z,16.95
2023-05-10T22:49:37.910Z,13.55
2023-05-10T22:52:04.623Z,12.60
2023-05-10T22:54:31.147Z,14.30
2023-05-10T22:56:57.722Z,11.20
2023-05-10T22:59:24.262Z,12.82
2023-05-10T23:01:51.067Z,15.32
2023-05-10T23:04:18.266Z,11.50
2023-05-10T23:06:45.859Z,16.05
2023-05-10T23:09:12.388Z,10.75
2023-05-10T23:11:38.921Z,13.30
2023-05-10T23:14:05.430Z,14.57
2023-05-10T23:16:32.021Z,17.60
2023-05-10T23:18:58.790Z,14.98
2023-05-10T23:21:25.396Z,13.63
2023-05-10T23:23:52.439Z,16.65
2023-05-10T23:26:19.249Z,14.63
2023-05-10T23:28:45.862Z,15.32
2023-05-10T23:31:12.350Z,16.27
2023-05-10T23:33:38.932Z,18.85
2023-05-10T23:36:05.737Z,18.52
2023-05-10T23:38:32.618Z,18.58
2023-05-10T23:40:59.141Z,18.52
2023-05-10T23:43:25.921Z,18.85
2023-05-10T23:45:54.018Z,18.45
2023-05-10T23:48:20.914Z,17.85
2023-05-10T23:50:47.882Z,20.00
2023-05-10T23:53:14.438Z,20.40
2023-05-10T23:55:40.966Z,16.58
2023-05-10T23:58:07.757Z,18.67
